Time;durP1;ratioP1;P1;durP2;ratioP2;P2;SDS_P1;SDS_P2;PMS_P1;PMS_P2;Temp;Humidity;BMP_temperature;BMP_pressure;BME280_temperature;BME280_humidity;BME280_pressure;Samples;Min_cycle;Max_cycle;Signal;HPM_P1;HPM_P2
2023/06/27 00:02:21;;;;;;;;;;;27.70;51.70;;;;;;4885507;29;20358;-88
2023/06/27 00:04:47;;;;;;;;;;;27.70;51.70;;;;;;4898541;29;19945;-88
2023/06/27 00:07:13;;;;;;;;;;;27.70;51.80;;;;;;4883504;29;19997;-88
2023/06/27 00:09:38;;;;;;;;;;;27.60;51.70;;;;;;4882006;29;20200;-88
2023/06/27 00:12:05;;;;;;;;;;;27.60;51.70;;;;;;4881234;29;19994;-88
2023/06/27 00:14:36;;;;;;;;;;;27.60;51.70;;;;;;4878038;29;20169;-88
2023/06/27 00:17:10;;;;;;;;;;;27.60;51.70;;;;;;4879533;29;19916;-88
2023/06/27 00:19:35;;;;;;;;;;;27.60;51.70;;;;;;4888303;29;19915;-88
2023/06/27 00:22:04;;;;;;;;;;;27.50;51.60;;;;;;4879668;29;19927;-88
2023/06/27 00:24:29;;;;;;;;;;;27.50;51.60;;;;;;4895344;29;19927;-88
2023/06/27 00:26:55;;;;;;;;;;;27.50;51.70;;;;;;4881352;29;19919;-88
2023/06/27 00:29:20;;;;;;;;;;;27.50;51.70;;;;;;4881277;29;20006;-88
2023/06/27 00:31:46;;;;;;;;;;;27.50;51.70;;;;;;4890781;29;19911;-88
2023/06/27 00:34:12;;;;;;;;;;;27.40;51.60;;;;;;4883777;29;19926;-88
2023/06/27 00:36:37;;;;;;;;;;;27.40;51.60;;;;;;4880668;29;19916;-88
2023/06/27 00:39:06;;;;;;;;;;;27.40;51.60;;;;;;4898623;29;20089;-88
2023/06/27 00:41:31;;;;;;;;;;;27.40;51.60;;;;;;4881269;29;20474;-88
2023/06/27 00:43:57;;;;;;;;;;;27.40;51.60;;;;;;4896773;29;20074;-89
2023/06/27 00:46:40;;;;;;;;;;;27.40;51.60;;;;;;4886689;29;19912;-88
2023/06/27 00:49:12;;;;;;;;;;;27.30;51.50;;;;;;4882272;29;19915;-89
2023/06/27 00:51:41;;;;;;;;;;;27.30;51.50;;;;;;4879341;29;20164;-89
2023/06/27 00:54:06;;;;;;;;;;;27.30;51.50;;;;;;4889771;29;19959;-88
2023/06/27 00:56:33;;;;;;;;;;;27.30;51.60;;;;;;4896820;29;19970;-88
2023/06/27 00:59:00;;;;;;;;;;;27.20;51.50;;;;;;4887501;29;19911;-88
2023/06/27 01:01:41;;;;;;;;;;;27.20;51.50;;;;;;4895227;29;19926;-88
2023/06/27 01:04:07;;;;;;;;;;;27.30;51.60;;;;;;4880493;29;19923;-88
2023/06/27 01:06:45;;;;;;;;;;;27.20;51.50;;;;;;4904590;29;19979;-88
2023/06/27 01:09:39;;;;;;;;;;;27.20;51.50;;;;;;4879926;29;19920;-88
2023/06/27 01:15:20;;;;;;;;;;;27.20;51.50;;;;;;4885840;29;19915;-88
2023/06/27 01:17:46;;;;;;;;;;;27.20;51.50;;;;;;4886004;29;19983;-88
2023/06/27 01:20:15;;;;;;;;;;;27.10;51.40;;;;;;4894761;29;19915;-88
2023/06/27 01:22:46;;;;;;;;;;;27.10;51.40;;;;;;4879684;29;19951;-88
2023/06/27 01:25:18;;;;;;;;;;;27.10;51.40;;;;;;4899717;29;20009;-88
2023/06/27 01:27:44;;;;;;;;;;;27.10;51.40;;;;;;4885995;29;19927;-89
2023/06/27 01:30:10;;;;;;;;;;;27.00;51.40;;;;;;4898888;29;19946;-88
2023/06/27 01:32:53;;;;;;;;;;;27.00;51.40;;;;;;4880536;29;19912;-88
2023/06/27 01:35:28;;;;;;;;;;;27.00;51.40;;;;;;4887016;29;19916;-88
2023/06/27 01:38:02;;;;;;;;;;;27.00;51.40;;;;;;4879378;29;19912;-88
2023/06/27 01:40:36;;;;;;;;;;;27.00;51.40;;;;;;4879288;29;19942;-88
2023/06/27 01:43:06;;;;;;;;;;;27.00;51.40;;;;;;4878301;29;19955;-88
2023/06/27 01:45:36;;;;;;;;;;;27.00;51.40;;;;;;4886594;29;19974;-88
2023/06/27 01:48:02;;;;;;;;;;;27.00;51.40;;;;;;4884526;29;20390;-88
2023/06/27 01:53:27;;;;;;;;;;;26.90;51.30;;;;;;4884333;29;19916;-89
2023/06/27 01:56:12;;;;;;;;;;;26.90;51.30;;;;;;4885182;29;19988;-88
2023/06/27 01:58:41;;;;;;;;;;;26.80;51.30;;;;;;4880898;29;19920;-88
2023/06/27 02:01:32;;;;;;;;;;;26.80;51.20;;;;;;4884927;29;19919;-88
2023/06/27 02:04:12;;;;;;;;;;;26.80;51.30;;;;;;4896736;29;19996;-89
2023/06/27 02:06:41;;;;;;;;;;;26.80;51.20;;;;;;4885168;29;19915;-88
2023/06/27 02:09:09;;;;;;;;;;;26.80;51.20;;;;;;4896355;29;19923;-89
2023/06/27 02:11:56;;;;;;;;;;;26.80;51.30;;;;;;4884752;29;19915;-88
2023/06/27 02:14:25;;;;;;;;;;;26.70;51.20;;;;;;4895996;29;20353;-88
2023/06/27 02:17:04;;;;;;;;;;;26.70;51.20;;;;;;4896984;29;20367;-88
2023/06/27 02:19:30;;;;;;;;;;;26.70;51.20;;;;;;4896930;29;19912;-88
2023/06/27 02:22:05;;;;;;;;;;;26.70;51.20;;;;;;4889229;29;20029;-88
2023/06/27 02:24:31;;;;;;;;;;;26.70;51.50;;;;;;4880359;29;19915;-88
2023/06/27 02:26:59;;;;;;;;;;;26.70;51.20;;;;;;4884698;29;19922;-88
2023/06/27 02:29:25;;;;;;;;;;;26.60;51.10;;;;;;4901536;29;19930;-88
2023/06/27 02:31:53;;;;;;;;;;;26.60;51.10;;;;;;4893562;29;19927;-88
2023/06/27 02:34:19;;;;;;;;;;;26.60;51.10;;;;;;4908147;29;19938;-88
2023/06/27 02:36:54;;;;;;;;;;;26.60;51.10;;;;;;4882240;29;20188;-89
2023/06/27 02:39:20;;;;;;;;;;;26.60;51.10;;;;;;4889192;29;19923;-89
2023/06/27 02:41:49;;;;;;;;;;;26.50;51.00;;;;;;4893299;29;19919;-89
2023/06/27 02:44:17;;;;;;;;;;;26.60;51.10;;;;;;4886282;29;19924;-89
2023/06/27 02:46:46;;;;;;;;;;;26.50;51.00;;;;;;4883450;29;19950;-89
2023/06/27 02:49:15;;;;;;;;;;;26.50;51.10;;;;;;4883901;29;19926;-89
2023/06/27 02:51:49;;;;;;;;;;;26.50;51.00;;;;;;4896130;29;19912;-89
2023/06/27 02:54:19;;;;;;;;;;;26.50;51.00;;;;;;4883779;29;20010;-89
2023/06/27 02:56:44;;;;;;;;;;;26.50;51.00;;;;;;4894239;29;20026;-89
2023/06/27 02:59:10;;;;;;;;;;;26.50;51.00;;;;;;4881356;29;20028;-89
2023/06/27 03:01:39;;;;;;;;;;;26.50;51.00;;;;;;4881494;29;19916;-89
2023/06/27 03:04:09;;;;;;;;;;;26.50;51.00;;;;;;4883009;29;19915;-89
2023/06/27 03:06:34;;;;;;;;;;;26.40;51.00;;;;;;4887358;29;20201;-89
2023/06/27 03:09:00;;;;;;;;;;;26.40;50.90;;;;;;4886895;29;19964;-88
2023/06/27 03:11:29;;;;;;;;;;;26.40;50.90;;;;;;4898468;29;19930;-88
2023/06/27 03:13:55;;;;;;;;;;;26.40;51.00;;;;;;4896865;29;19922;-88
2023/06/27 03:16:20;;;;;;;;;;;26.40;51.00;;;;;;4884424;29;19915;-89
2023/06/27 03:18:56;;;;;;;;;;;26.40;50.90;;;;;;4885660;29;19994;-89
2023/06/27 03:21:22;;;;;;;;;;;26.30;50.80;;;;;;4883681;29;19922;-89
2023/06/27 03:23:57;;;;;;;;;;;26.40;50.90;;;;;;4896474;29;20256;-89
2023/06/27 03:26:27;;;;;;;;;;;26.40;50.90;;;;;;4882803;29;19926;-88
2023/06/27 03:28:54;;;;;;;;;;;26.30;50.80;;;;;;4884148;29;19922;-88
2023/06/27 03:31:20;;;;;;;;;;;26.30;50.80;;;;;;4880415;29;19926;-88
2023/06/27 03:33:48;;;;;;;;;;;26.30;50.80;;;;;;4881218;29;19920;-88
2023/06/27 03:36:14;;;;;;;;;;;26.30;50.80;;;;;;4887907;29;19915;-89
2023/06/27 03:38:45;;;;;;;;;;;26.30;50.80;;;;;;4880807;29;20003;-89
2023/06/27 03:41:26;;;;;;;;;;;26.30;50.80;;;;;;4884132;29;21138;-89
2023/06/27 03:43:52;;;;;;;;;;;26.30;50.80;;;;;;4894166;29;19926;-89
2023/06/27 03:46:18;;;;;;;;;;;26.30;50.80;;;;;;4884808;29;19935;-89
2023/06/27 03:48:43;;;;;;;;;;;26.30;50.80;;;;;;4890175;29;20248;-89
2023/06/27 03:51:12;;;;;;;;;;;26.20;50.70;;;;;;4885207;29;20003;-89
2023/06/27 03:53:47;;;;;;;;;;;26.20;50.70;;;;;;4873214;29;20348;-89
2023/06/27 03:56:12;;;;;;;;;;;26.20;50.70;;;;;;4898347;29;19983;-89
2023/06/27 03:58:53;;;;;;;;;;;26.20;50.70;;;;;;4880807;29;19994;-89
2023/06/27 04:01:22;;;;;;;;;;;26.20;50.70;;;;;;4874742;29;19962;-89
2023/06/27 04:04:11;;;;;;;;;;;26.20;50.70;;;;;;4892069;29;19943;-89
2023/06/27 04:06:36;;;;;;;;;;;26.20;50.60;;;;;;4882632;29;19919;-89
2023/06/27 04:09:05;;;;;;;;;;;26.20;50.60;;;;;;4892721;29;20375;-89
2023/06/27 04:11:42;;;;;;;;;;;26.20;50.60;;;;;;4879293;29;19950;-89
2023/06/27 04:14:11;;;;;;;;;;;26.20;50.60;;;;;;4878090;29;19924;-89
2023/06/27 04:16:40;;;;;;;;;;;26.20;50.60;;;;;;4885592;29;19982;-89
2023/06/27 04:19:08;;;;;;;;;;;26.10;50.50;;;;;;4876926;29;19962;-89
2023/06/27 04:21:34;;;;;;;;;;;26.10;50.50;;;;;;4893712;29;20244;-89
2023/06/27 04:24:00;;;;;;;;;;;26.20;50.50;;;;;;4892655;29;19918;-89
2023/06/27 04:26:26;;;;;;;;;;;26.20;50.50;;;;;;4883684;29;20001;-89
2023/06/27 04:28:58;;;;;;;;;;;26.10;50.40;;;;;;4891945;29;19930;-89
2023/06/27 04:31:27;;;;;;;;;;;26.10;50.40;;;;;;4879125;29;20276;-89
2023/06/27 04:33:59;;;;;;;;;;;26.10;50.40;;;;;;4880410;29;20018;-89
2023/06/27 04:36:26;;;;;;;;;;;26.10;50.40;;;;;;4882354;29;19922;-89
2023/06/27 04:38:55;;;;;;;;;;;26.10;50.30;;;;;;4878863;29;19942;-89
2023/06/27 04:41:23;;;;;;;;;;;26.10;50.30;;;;;;4878333;29;19919;-89
2023/06/27 04:43:49;;;;;;;;;;;26.10;50.30;;;;;;4879673;29;19915;-89
2023/06/27 04:46:18;;;;;;;;;;;26.10;50.30;;;;;;4879738;29;20037;-89
2023/06/27 04:48:43;;;;;;;;;;;26.10;50.30;;;;;;4868358;29;19919;-89
2023/06/27 04:51:12;;;;;;;;;;;26.10;50.30;;;;;;4874978;29;19915;-89
2023/06/27 04:54:18;;;;;;;;;;;26.10;50.20;;;;;;4885874;29;19919;-89
2023/06/27 04:56:48;;;;;;;;;;;26.20;50.20;;;;;;4886200;29;19919;-89
2023/06/27 04:59:23;;;;;;;;;;;26.20;50.20;;;;;;4872831;29;19911;-89
2023/06/27 05:01:55;;;;;;;;;;;26.20;50.20;;;;;;4880385;29;19971;-90
2023/06/27 05:04:21;;;;;;;;;;;26.20;50.10;;;;;;4885361;29;19997;-90
2023/06/27 05:06:49;;;;;;;;;;;26.20;50.10;;;;;;4880353;29;19919;-90
2023/06/27 05:09:15;;;;;;;;;;;26.30;50.10;;;;;;4878302;29;20138;-90
2023/06/27 05:11:44;;;;;;;;;;;26.30;50.10;;;;;;4892161;29;19918;-90
2023/06/27 05:14:14;;;;;;;;;;;26.30;50.00;;;;;;4874004;29;19912;-89
2023/06/27 05:16:43;;;;;;;;;;;26.30;50.00;;;;;;4875474;29;19923;-90
2023/06/27 05:19:11;;;;;;;;;;;26.30;50.00;;;;;;4876218;29;19975;-90
2023/06/27 05:21:37;;;;;;;;;;;26.30;49.90;;;;;;4874434;29;20098;-89
2023/06/27 05:24:05;;;;;;;;;;;26.30;49.90;;;;;;4875485;29;19930;-90
2023/06/27 05:26:32;;;;;;;;;;;26.30;49.90;;;;;;4880577;29;19911;-90
2023/06/27 05:29:01;;;;;;;;;;;26.30;49.80;;;;;;4885090;29;20204;-90
2023/06/27 05:31:29;;;;;;;;;;;26.30;49.80;;;;;;4876128;29;19919;-90
2023/06/27 05:34:01;;;;;;;;;;;26.40;49.80;;;;;;4876785;29;19919;-90
2023/06/27 05:36:27;;;;;;;;;;;26.40;49.80;;;;;;4875237;29;19916;-90
2023/06/27 05:38:52;;;;;;;;;;;26.40;49.80;;;;;;4866755;29;19912;-89
2023/06/27 05:41:21;;;;;;;;;;;26.40;49.70;;;;;;4875455;29;19959;-89
2023/06/27 05:43:47;;;;;;;;;;;26.40;49.70;;;;;;4878954;29;20015;-90
2023/06/27 05:46:12;;;;;;;;;;;26.40;49.70;;;;;;4876865;29;19976;-90
2023/06/27 05:48:38;;;;;;;;;;;26.40;49.60;;;;;;4877474;29;20006;-90
2023/06/27 05:51:09;;;;;;;;;;;26.40;49.60;;;;;;4889356;29;19912;-90
2023/06/27 05:53:35;;;;;;;;;;;26.50;49.60;;;;;;4876898;29;19919;-89
2023/06/27 05:56:04;;;;;;;;;;;26.50;49.60;;;;;;4875504;29;20356;-90
2023/06/27 05:58:39;;;;;;;;;;;26.50;49.60;;;;;;4874863;29;19912;-90
2023/06/27 06:01:04;;;;;;;;;;;26.50;49.60;;;;;;4887147;29;19915;-89
2023/06/27 06:03:33;;;;;;;;;;;26.50;49.60;;;;;;4886399;29;20025;-90
2023/06/27 06:06:02;;;;;;;;;;;26.50;49.60;;;;;;4876419;29;19915;-90
2023/06/27 06:08:43;;;;;;;;;;;26.50;49.60;;;;;;4884110;29;20273;-90
2023/06/27 06:11:08;;;;;;;;;;;26.50;49.60;;;;;;4875224;29;19947;-90
2023/06/27 06:13:46;;;;;;;;;;;26.50;49.60;;;;;;4877097;29;20252;-90
2023/06/27 06:16:18;;;;;;;;;;;26.50;49.60;;;;;;4886107;29;19927;-90
2023/06/27 06:18:47;;;;;;;;;;;26.50;49.50;;;;;;4883940;29;20231;-90
2023/06/27 06:21:15;;;;;;;;;;;26.50;49.50;;;;;;4873480;29;19938;-90
2023/06/27 06:23:57;;;;;;;;;;;26.50;49.50;;;;;;4875800;29;19912;-90
2023/06/27 06:26:23;;;;;;;;;;;26.50;49.50;;;;;;4865116;29;19998;-90
2023/06/27 06:28:49;;;;;;;;;;;26.50;49.50;;;;;;4875817;29;19911;-90
2023/06/27 06:31:24;;;;;;;;;;;26.60;49.50;;;;;;4884933;29;19912;-90
2023/06/27 06:33:53;;;;;;;;;;;26.60;49.40;;;;;;4877855;29;20071;-90
2023/06/27 06:36:25;;;;;;;;;;;26.70;49.40;;;;;;4875962;29;19916;-90
2023/06/27 06:39:01;;;;;;;;;;;26.70;49.30;;;;;;4883379;29;20195;-90
2023/06/27 06:41:30;;;;;;;;;;;26.80;49.30;;;;;;4869639;29;20382;-89
2023/06/27 06:43:55;;;;;;;;;;;26.90;49.30;;;;;;4874439;29;19923;-90
2023/06/27 06:46:21;;;;;;;;;;;26.90;49.20;;;;;;4870681;29;19919;-90
2023/06/27 06:48:46;;;;;;;;;;;26.90;49.10;;;;;;4880688;29;20018;-90
2023/06/27 06:51:23;;;;;;;;;;;27.00;49.10;;;;;;4875504;29;20521;-89
2023/06/27 06:53:48;;;;;;;;;;;27.00;49.10;;;;;;4875492;29;20256;-90
2023/06/27 06:56:17;;;;;;;;;;;27.00;49.00;;;;;;4875481;29;19933;-90
2023/06/27 06:58:42;;;;;;;;;;;27.10;49.00;;;;;;4882159;29;19916;-89
2023/06/27 07:01:08;;;;;;;;;;;27.10;49.00;;;;;;4879649;29;19912;-89
2023/06/27 07:03:34;;;;;;;;;;;27.20;49.00;;;;;;4871542;29;19920;-89
2023/06/27 07:05:59;;;;;;;;;;;27.20;49.00;;;;;;4868812;29;19947;-90
2023/06/27 07:08:38;;;;;;;;;;;27.30;48.90;;;;;;4874418;29;19922;-90
2023/06/27 07:11:08;;;;;;;;;;;27.30;48.90;;;;;;4882964;29;20249;-90
2023/06/27 07:13:37;;;;;;;;;;;27.40;48.90;;;;;;4872085;29;20003;-89
2023/06/27 07:16:02;;;;;;;;;;;27.40;48.90;;;;;;4863259;29;20166;-90
2023/06/27 07:18:31;;;;;;;;;;;27.40;48.80;;;;;;4871169;29;19947;-89
2023/06/27 07:20:56;;;;;;;;;;;27.50;48.80;;;;;;4872573;29;19916;-89
2023/06/27 07:23:22;;;;;;;;;;;27.50;48.70;;;;;;4874906;29;19912;-90
2023/06/27 07:25:47;;;;;;;;;;;27.60;48.70;;;;;;4871952;29;19919;-90
2023/06/27 07:28:16;;;;;;;;;;;27.70;48.70;;;;;;4871609;29;19920;-89
2023/06/27 07:30:45;;;;;;;;;;;27.70;48.70;;;;;;4873498;29;20019;-89
2023/06/27 07:33:12;;;;;;;;;;;27.80;48.70;;;;;;4871587;29;19919;-89
2023/06/27 07:35:37;;;;;;;;;;;27.80;48.60;;;;;;4869250;29;19930;-89
2023/06/27 07:38:06;;;;;;;;;;;27.90;48.60;;;;;;4873005;29;19919;-89
2023/06/27 07:40:32;;;;;;;;;;;28.00;48.50;;;;;;4872740;29;20142;-89
2023/06/27 07:42:57;;;;;;;;;;;28.10;48.60;;;;;;4870972;29;19912;-89
2023/06/27 07:45:27;;;;;;;;;;;28.10;48.50;;;;;;4875260;29;20266;-89
2023/06/27 07:47:52;;;;;;;;;;;28.20;48.40;;;;;;4874116;29;19915;-89
2023/06/27 07:50:18;;;;;;;;;;;28.30;48.40;;;;;;4873190;29;19919;-89
2023/06/27 07:52:44;;;;;;;;;;;28.40;48.30;;;;;;4879552;29;19922;-88
2023/06/27 07:55:10;;;;;;;;;;;28.40;48.20;;;;;;4871455;29;19920;-89
2023/06/27 07:57:35;;;;;;;;;;;28.50;48.20;;;;;;4870946;29;19915;-89
2023/06/27 08:00:08;;;;;;;;;;;28.60;48.50;;;;;;4869557;29;20060;-89
2023/06/27 08:02:38;;;;;;;;;;;28.80;48.10;;;;;;4861645;29;20052;-90
2023/06/27 08:05:06;;;;;;;;;;;28.80;48.00;;;;;;4873324;29;19959;-89
2023/06/27 08:07:36;;;;;;;;;;;28.90;47.90;;;;;;4870184;29;19918;-89
2023/06/27 08:10:11;;;;;;;;;;;28.90;47.90;;;;;;4883676;29;19991;-89
2023/06/27 08:12:37;;;;;;;;;;;28.90;47.90;;;;;;4868286;29;19993;-90
2023/06/27 08:15:03;;;;;;;;;;;29.00;47.90;;;;;;4883425;29;19919;-89
2023/06/27 08:17:32;;;;;;;;;;;29.00;47.90;;;;;;4873772;29;19919;-89
2023/06/27 08:19:57;;;;;;;;;;;29.00;47.90;;;;;;4877561;29;19935;-90
2023/06/27 08:22:24;;;;;;;;;;;29.10;47.90;;;;;;4870009;29;19924;-89
2023/06/27 08:24:49;;;;;;;;;;;29.10;47.90;;;;;;4871659;29;19927;-89
2023/06/27 08:27:18;;;;;;;;;;;29.20;47.90;;;;;;4875308;29;20072;-89
2023/06/27 08:29:46;;;;;;;;;;;29.20;47.90;;;;;;4873189;29;19980;-89
2023/06/27 08:32:15;;;;;;;;;;;29.20;47.80;;;;;;4870069;29;19915;-89
2023/06/27 08:34:43;;;;;;;;;;;29.20;47.80;;;;;;4883193;29;19919;-89
2023/06/27 08:37:09;;;;;;;;;;;29.30;47.90;;;;;;4885166;29;20026;-89
2023/06/27 08:39:34;;;;;;;;;;;29.30;47.80;;;;;;4873196;29;20233;-90
2023/06/27 08:42:06;;;;;;;;;;;29.40;47.80;;;;;;4870052;29;19923;-89
2023/06/27 08:44:31;;;;;;;;;;;29.40;47.80;;;;;;4878612;29;20093;-90
2023/06/27 08:47:01;;;;;;;;;;;29.50;47.80;;;;;;4871077;29;19916;-89
2023/06/27 08:49:27;;;;;;;;;;;29.60;47.70;;;;;;4863028;29;20167;-90
2023/06/27 08:51:55;;;;;;;;;;;29.60;47.70;;;;;;4883610;29;20010;-90
2023/06/27 08:54:51;;;;;;;;;;;29.60;47.70;;;;;;4871386;29;19922;-89
2023/06/27 08:57:17;;;;;;;;;;;29.60;47.80;;;;;;4854372;29;20307;-89
2023/06/27 08:59:46;;;;;;;;;;;29.70;47.70;;;;;;4872145;29;20283;-89
2023/06/27 09:02:16;;;;;;;;;;;29.70;47.70;;;;;;4871538;29;19973;-90
2023/06/27 09:04:45;;;;;;;;;;;29.80;47.70;;;;;;4871124;29;19950;-89
2023/06/27 09:07:13;;;;;;;;;;;29.80;47.60;;;;;;4875565;29;20208;-89
2023/06/27 09:09:41;;;;;;;;;;;29.90;47.60;;;;;;4882224;29;19947;-90
2023/06/27 09:12:07;;;;;;;;;;;29.90;47.60;;;;;;4873610;29;19911;-90
2023/06/27 09:14:33;;;;;;;;;;;29.90;48.10;;;;;;4863566;29;19920;-89
2023/06/27 09:17:03;;;;;;;;;;;29.90;47.70;;;;;;4874310;29;19926;-89
2023/06/27 09:19:29;;;;;;;;;;;29.90;47.70;;;;;;4874867;29;20236;-89
2023/06/27 09:21:58;;;;;;;;;;;29.90;47.70;;;;;;4874179;29;20072;-89
2023/06/27 09:24:27;;;;;;;;;;;29.80;47.70;;;;;;4884006;29;19919;-89
2023/06/27 09:26:52;;;;;;;;;;;29.80;47.80;;;;;;4877216;29;20380;-90
2023/06/27 09:29:19;;;;;;;;;;;29.80;47.80;;;;;;4874954;29;19969;-89
2023/06/27 09:31:45;;;;;;;;;;;29.80;47.90;;;;;;4876078;29;20192;-89
2023/06/27 09:34:10;;;;;;;;;;;29.70;47.90;;;;;;4875161;29;20276;-90
2023/06/27 09:36:38;;;;;;;;;;;29.70;48.00;;;;;;4882959;29;20165;-89
2023/06/27 09:39:04;;;;;;;;;;;29.70;48.00;;;;;;4865054;29;20339;-90
2023/06/27 09:41:39;;;;;;;;;;;29.70;48.10;;;;;;4882861;29;19915;-89
2023/06/27 09:44:09;;;;;;;;;;;29.70;48.10;;;;;;4868772;29;20009;-90
2023/06/27 09:46:35;;;;;;;;;;;29.70;48.10;;;;;;4882337;29;19912;-89
2023/06/27 09:49:00;;;;;;;;;;;29.70;48.10;;;;;;4881079;29;20082;-89
2023/06/27 09:51:28;;;;;;;;;;;29.70;48.10;;;;;;4882805;29;20002;-89
2023/06/27 09:54:00;;;;;;;;;;;29.60;48.20;;;;;;4873042;29;20306;-89
2023/06/27 09:56:30;;;;;;;;;;;29.60;48.20;;;;;;4872960;29;19923;-89
2023/06/27 09:58:56;;;;;;;;;;;29.50;48.30;;;;;;4868256;29;20153;-89
2023/06/27 10:01:24;;;;;;;;;;;29.50;48.40;;;;;;4871526;29;20181;-89
2023/06/27 10:03:53;;;;;;;;;;;29.40;48.40;;;;;;4869411;29;20060;-89
2023/06/27 10:06:19;;;;;;;;;;;29.40;48.50;;;;;;4869406;29;20022;-89
2023/06/27 10:08:47;;;;;;;;;;;29.40;48.50;;;;;;4879924;29;20020;-89
2023/06/27 10:11:13;;;;;;;;;;;29.40;48.50;;;;;;4866694;29;19912;-89
2023/06/27 10:13:39;;;;;;;;;;;29.40;48.60;;;;;;4872561;29;19915;-89
2023/06/27 10:16:05;;;;;;;;;;;29.40;48.60;;;;;;4872858;29;20093;-89
2023/06/27 10:18:33;;;;;;;;;;;29.40;48.60;;;;;;4871922;29;19912;-89
2023/06/27 10:20:59;;;;;;;;;;;29.40;49.00;;;;;;4871604;29;20273;-89
2023/06/27 10:23:25;;;;;;;;;;;29.40;48.60;;;;;;4868876;29;20094;-90
2023/06/27 10:25:51;;;;;;;;;;;29.40;48.60;;;;;;4880412;29;19919;-89
2023/06/27 10:28:20;;;;;;;;;;;29.50;48.60;;;;;;4869424;29;19912;-90
2023/06/27 10:30:46;;;;;;;;;;;29.50;48.60;;;;;;4877706;29;20073;-89
2023/06/27 10:33:35;;;;;;;;;;;29.50;48.60;;;;;;4872254;29;20019;-89
2023/06/27 10:36:04;;;;;;;;;;;29.50;48.60;;;;;;4866885;29;19994;-89
2023/06/27 10:38:47;;;;;;;;;;;29.50;48.60;;;;;;4869780;29;20035;-91
2023/06/27 10:41:23;;;;;;;;;;;29.50;48.60;;;;;;4860124;29;19946;-89
2023/06/27 10:43:53;;;;;;;;;;;29.50;48.70;;;;;;4878399;29;20279;-89
2023/06/27 10:46:30;;;;;;;;;;;29.40;48.60;;;;;;4869280;29;19987;-90
2023/06/27 10:49:02;;;;;;;;;;;29.40;48.70;;;;;;4860177;29;20352;-90
2023/06/27 10:51:34;;;;;;;;;;;29.40;48.80;;;;;;4861627;29;19951;-89
2023/06/27 10:54:11;;;;;;;;;;;29.40;48.80;;;;;;4867496;29;19911;-89
2023/06/27 10:56:41;;;;;;;;;;;29.40;48.80;;;;;;4875869;29;19916;-89
2023/06/27 10:59:24;;;;;;;;;;;29.40;48.70;;;;;;4883425;29;20027;-90
2023/06/27 11:02:01;;;;;;;;;;;29.50;48.70;;;;;;4875265;29;20372;-89
2023/06/27 11:04:41;;;;;;;;;;;29.50;48.70;;;;;;4869361;29;19982;-89
2023/06/27 11:07:07;;;;;;;;;;;29.50;48.70;;;;;;4879635;29;19915;-90
2023/06/27 11:09:35;;;;;;;;;;;29.50;48.70;;;;;;4878295;29;20150;-90
2023/06/27 11:12:17;;;;;;;;;;;29.50;48.70;;;;;;4867464;29;20302;-89
2023/06/27 11:14:44;;;;;;;;;;;29.50;48.70;;;;;;4863668;29;20171;-88
2023/06/27 11:17:10;;;;;;;;;;;29.50;48.70;;;;;;4865653;29;19924;-90
2023/06/27 11:19:38;;;;;;;;;;;29.40;48.70;;;;;;4856580;29;19999;-89
2023/06/27 11:22:04;;;;;;;;;;;29.40;48.80;;;;;;4867721;29;20217;-91
2023/06/27 11:24:33;;;;;;;;;;;29.40;48.90;;;;;;4866695;29;20398;-90
2023/06/27 11:27:00;;;;;;;;;;;29.30;48.90;;;;;;4865864;29;20036;-89
2023/06/27 11:29:27;;;;;;;;;;;29.30;48.90;;;;;;4861892;29;19919;-90
2023/06/27 11:31:53;;;;;;;;;;;29.30;49.00;;;;;;4876497;29;19971;-89
2023/06/27 11:34:19;;;;;;;;;;;29.20;49.00;;;;;;4866447;29;20161;-89
2023/06/27 11:36:45;;;;;;;;;;;29.20;49.00;;;;;;4865300;29;19916;-90
2023/06/27 11:39:14;;;;;;;;;;;29.20;49.10;;;;;;4862818;29;20010;-89
2023/06/27 11:41:43;;;;;;;;;;;29.20;49.10;;;;;;4867221;29;19916;-89
2023/06/27 11:44:12;;;;;;;;;;;29.20;49.10;;;;;;4871353;29;20394;-89
2023/06/27 11:46:47;;;;;;;;;;;29.30;49.10;;;;;;4877167;29;19952;-89
2023/06/27 11:49:12;;;;;;;;;;;29.30;49.00;;;;;;4877858;29;19912;-89
2023/06/27 11:51:39;;;;;;;;;;;29.30;49.00;;;;;;4870447;29;19918;-89
2023/06/27 11:54:08;;;;;;;;;;;29.30;49.00;;;;;;4868893;29;19979;-90
2023/06/27 11:56:40;;;;;;;;;;;29.40;49.00;;;;;;4869485;29;20034;-90
2023/06/27 11:59:06;;;;;;;;;;;29.40;49.00;;;;;;4877181;29;19953;-90
2023/06/27 12:01:41;;;;;;;;;;;29.40;49.00;;;;;;4874513;29;19923;-90
2023/06/27 12:04:17;;;;;;;;;;;29.30;49.00;;;;;;4866256;29;20407;-89
2023/06/27 12:06:46;;;;;;;;;;;29.30;49.00;;;;;;4860809;29;19920;-90
2023/06/27 12:09:22;;;;;;;;;;;29.30;49.00;;;;;;4865637;29;19912;-89
2023/06/27 12:12:03;;;;;;;;;;;29.30;49.10;;;;;;4869204;29;20018;-90
2023/06/27 12:14:29;;;;;;;;;;;29.30;49.10;;;;;;4862266;29;19912;-90
2023/06/27 12:16:55;;;;;;;;;;;29.30;49.10;;;;;;4868143;29;19983;-89
2023/06/27 12:19:21;;;;;;;;;;;29.30;49.10;;;;;;4860721;29;19922;-89
2023/06/27 12:21:47;;;;;;;;;;;29.30;49.10;;;;;;4870393;29;20410;-89
2023/06/27 12:24:12;;;;;;;;;;;29.30;49.10;;;;;;4866397;29;19912;-88
2023/06/27 12:26:39;;;;;;;;;;;29.30;49.10;;;;;;4861350;29;20257;-90
2023/06/27 12:29:09;;;;;;;;;;;29.40;49.10;;;;;;4867354;29;19915;-90
2023/06/27 12:31:35;;;;;;;;;;;29.30;49.10;;;;;;4870554;29;19911;-90
2023/06/27 12:34:00;;;;;;;;;;;29.30;49.10;;;;;;4868829;29;19970;-89
2023/06/27 12:36:32;;;;;;;;;;;29.30;49.10;;;;;;4867668;29;20002;-91
2023/06/27 12:38:58;;;;;;;;;;;29.30;49.10;;;;;;4866156;29;19923;-89
2023/06/27 12:41:28;;;;;;;;;;;29.30;49.10;;;;;;4870121;29;19919;-89
2023/06/27 12:43:53;;;;;;;;;;;29.40;49.20;;;;;;4869619;29;19912;-90
2023/06/27 12:46:22;;;;;;;;;;;29.40;49.10;;;;;;4867898;29;20381;-89
2023/06/27 12:48:48;;;;;;;;;;;29.40;49.10;;;;;;4866581;29;20014;-89
2023/06/27 12:51:15;;;;;;;;;;;29.40;49.10;;;;;;4867924;29;20127;-90
2023/06/27 12:53:40;;;;;;;;;;;29.40;49.10;;;;;;4872105;29;20224;-90
2023/06/27 12:56:09;;;;;;;;;;;29.40;49.10;;;;;;4868972;29;19947;-90
2023/06/27 12:58:35;;;;;;;;;;;29.40;49.20;;;;;;4865377;29;20139;-91
2023/06/27 13:01:00;;;;;;;;;;;29.40;49.20;;;;;;4870361;29;20214;-90
2023/06/27 13:03:30;;;;;;;;;;;29.40;49.20;;;;;;4871884;29;19912;-91
2023/06/27 13:06:01;;;;;;;;;;;29.40;49.20;;;;;;4870807;29;19931;-90
2023/06/27 13:08:27;;;;;;;;;;;29.40;49.20;;;;;;4871590;29;19919;-89
2023/06/27 13:11:10;;;;;;;;;;;29.30;49.10;;;;;;4877826;29;19930;-89
2023/06/27 13:13:36;;;;;;;;;;;29.30;49.20;;;;;;4873980;29;19919;-89
2023/06/27 13:16:02;;;;;;;;;;;29.30;49.20;;;;;;4870375;29;19978;-89
2023/06/27 13:18:30;;;;;;;;;;;29.30;49.20;;;;;;4873731;29;20284;-90
2023/06/27 13:20:55;;;;;;;;;;;29.30;49.20;;;;;;4870018;29;20004;-89
2023/06/27 13:23:21;;;;;;;;;;;29.30;49.20;;;;;;4881717;29;19912;-90
2023/06/27 13:25:50;;;;;;;;;;;29.30;49.20;;;;;;4871530;29;19951;-90
2023/06/27 13:28:18;;;;;;;;;;;29.30;49.20;;;;;;4867796;29;20018;-90
2023/06/27 13:30:53;;;;;;;;;;;29.30;49.20;;;;;;4878800;29;19927;-89
2023/06/27 13:33:28;;;;;;;;;;;29.30;49.20;;;;;;4863822;29;19919;-89
2023/06/27 13:36:00;;;;;;;;;;;29.30;49.30;;;;;;4870099;29;19995;-89
2023/06/27 13:38:29;;;;;;;;;;;29.30;49.20;;;;;;4877561;29;19912;-89
2023/06/27 13:40:58;;;;;;;;;;;29.30;49.20;;;;;;4865382;29;20003;-90
2023/06/27 13:43:34;;;;;;;;;;;29.30;49.20;;;;;;4866211;29;20311;-90
2023/06/27 13:46:00;;;;;;;;;;;29.40;49.30;;;;;;4879272;29;19916;-90
2023/06/27 13:48:54;;;;;;;;;;;29.40;49.20;;;;;;4872815;29;20177;-90
2023/06/27 13:51:19;;;;;;;;;;;29.40;49.20;;;;;;4887382;29;19915;-89
2023/06/27 13:53:45;;;;;;;;;;;29.40;49.20;;;;;;4877903;29;19939;-90
2023/06/27 13:56:14;;;;;;;;;;;29.40;49.20;;;;;;4876111;29;19919;-90
2023/06/27 13:58:48;;;;;;;;;;;29.50;49.20;;;;;;4881453;29;20017;-90
2023/06/27 14:01:26;;;;;;;;;;;29.40;49.20;;;;;;4878289;29;20238;-90
2023/06/27 14:03:55;;;;;;;;;;;29.40;49.20;;;;;;4866371;29;20161;-91
2023/06/27 14:06:21;;;;;;;;;;;29.40;49.20;;;;;;4874936;29;19931;-90
2023/06/27 14:08:50;;;;;;;;;;;29.50;49.30;;;;;;4869216;29;19911;-90
2023/06/27 14:11:37;;;;;;;;;;;29.40;49.20;;;;;;4888546;29;19915;-90
2023/06/27 14:14:04;;;;;;;;;;;29.50;49.30;;;;;;4880454;29;19912;-90
2023/06/27 14:16:30;;;;;;;;;;;29.40;49.20;;;;;;4868846;29;20098;-89
2023/06/27 14:19:06;;;;;;;;;;;29.40;49.20;;;;;;4873240;29;20143;-90
2023/06/27 14:21:37;;;;;;;;;;;29.40;49.30;;;;;;4872826;29;19955;-88
2023/06/27 14:24:06;;;;;;;;;;;29.40;49.30;;;;;;4875365;29;19919;-89
2023/06/27 14:26:32;;;;;;;;;;;29.40;49.30;;;;;;4875284;29;20276;-89
2023/06/27 14:29:03;;;;;;;;;;;29.40;49.30;;;;;;4874777;29;20007;-90
2023/06/27 14:31:32;;;;;;;;;;;29.40;49.30;;;;;;4882166;29;19980;-90
2023/06/27 14:33:58;;;;;;;;;;;29.40;49.30;;;;;;4867343;29;19911;-90
2023/06/27 14:36:34;;;;;;;;;;;29.40;49.40;;;;;;4887074;29;19924;-90